This is the latest recevied weather packets stored in our database for station/object OK1VCF-8. If no packets are shown the sender has not sent any weather packets the latest 10 day(s).
| Time | Temp. | Humidity | Pressure | Rain* | Wind** | Luminosity | Snow |
|---|---|---|---|---|---|---|---|
| 1777782777 | 11.11° C | 62% | 1018.6 hPa | - | - | - | - |
| 1777782173 | 12.22° C | 60% | 1018.6 hPa | - | - | - | - |
| 1777781735 | 14.44° C | 54% | 1018.5 hPa | - | - | - | - |
| 1777781296 | 11.67° C | 62% | 1018.4 hPa | - | - | - | - |
| 1777780858 | 12.22° C | 60% | 1018.4 hPa | - | - | - | - |
| 1777780420 | 11.67° C | 64% | 1018.4 hPa | - | - | - | - |
| 1777779982 | 10° C | 70% | 1018.4 hPa | - | - | - | - |
| 1777779546 | 8.89° C | 72% | 1018.4 hPa | - | - | - | - |
| 1777779109 | 8.89° C | 72% | 1018.4 hPa | - | - | - | - |
| 1777777807 | 8.33° C | 72% | 1018.2 hPa | - | - | - | - |
| 1777777370 | 8.33° C | 70% | 1018.1 hPa | - | - | - | - |
| 1777776931 | 8.89° C | 71% | 1018.2 hPa | - | - | - | - |
| 1777776494 | 8.89° C | 70% | 1018.2 hPa | - | - | - | - |
| 1777776057 | 8.89° C | 69% | 1018.2 hPa | - | - | - | - |
| 1777775456 | 8.89° C | 70% | 1018.2 hPa | - | - | - | - |
| 1777775018 | 10° C | 68% | 1018.2 hPa | - | - | - | - |
| 1777774580 | 10° C | 61% | 1018.2 hPa | - | - | - | - |
| 1777774142 | 10° C | 61% | 1018.1 hPa | - | - | - | - |
| 1777773705 | 10° C | 62% | 1018.3 hPa | - | - | - | - |
| 1777773267 | 10° C | 62% | 1018.2 hPa | - | - | - | - |
| 1777772829 | 9.44° C | 65% | 1018.2 hPa | - | - | - | - |
| 1777772392 | 10° C | 62% | 1018.2 hPa | - | - | - | - |
| 1777771955 | 10° C | 60% | 1018.2 hPa | - | - | - | - |
| 1777771517 | 10° C | 60% | 1018.2 hPa | - | - | - | - |
| 1777771081 | 10.56° C | 59% | 1018.2 hPa | - | - | - | - |
* Rain since midnight (hover to see other rain measurements)
** Current wind speed in m/s (hover to see current wind gust speed)